sensor_id;sensor_type;location;lat;lon;timestamp;temperature;humidity
57390;DHT22;43217;52.694;6.214;2022-11-15T00:00:08;7.30;99.90
57390;DHT22;43217;52.694;6.214;2022-11-15T00:02:34;7.30;99.90
57390;DHT22;43217;52.694;6.214;2022-11-15T00:04:59;7.30;99.90
57390;DHT22;43217;52.694;6.214;2022-11-15T00:07:25;7.30;99.90
57390;DHT22;43217;52.694;6.214;2022-11-15T00:09:50;7.30;99.90
57390;DHT22;43217;52.694;6.214;2022-11-15T00:12:16;7.30;99.90
57390;DHT22;43217;52.694;6.214;2022-11-15T00:14:41;7.30;99.90
57390;DHT22;43217;52.694;6.214;2022-11-15T00:17:07;7.30;99.90
57390;DHT22;43217;52.694;6.214;2022-11-15T00:19:34;7.30;99.90
57390;DHT22;43217;52.694;6.214;2022-11-15T00:22:00;7.30;99.90
57390;DHT22;43217;52.694;6.214;2022-11-15T00:24:25;7.30;99.90
57390;DHT22;43217;52.694;6.214;2022-11-15T00:26:51;7.30;99.90
57390;DHT22;43217;52.694;6.214;2022-11-15T00:29:17;7.30;99.90
57390;DHT22;43217;52.694;6.214;2022-11-15T00:31:42;7.30;99.90
57390;DHT22;43217;52.694;6.214;2022-11-15T00:34:09;7.30;99.90
57390;DHT22;43217;52.694;6.214;2022-11-15T00:36:35;7.30;99.90
57390;DHT22;43217;52.694;6.214;2022-11-15T00:39:03;7.30;99.90
57390;DHT22;43217;52.694;6.214;2022-11-15T00:41:29;7.30;99.90
57390;DHT22;43217;52.694;6.214;2022-11-15T00:43:54;7.30;99.90
57390;DHT22;43217;52.694;6.214;2022-11-15T00:46:20;7.30;99.90
57390;DHT22;43217;52.694;6.214;2022-11-15T00:48:46;7.30;99.90
57390;DHT22;43217;52.694;6.214;2022-11-15T00:51:11;7.30;99.90
57390;DHT22;43217;52.694;6.214;2022-11-15T00:53:37;7.20;99.90
57390;DHT22;43217;52.694;6.214;2022-11-15T00:56:02;7.20;99.90
57390;DHT22;43217;52.694;6.214;2022-11-15T00:58:28;7.20;99.90
57390;DHT22;43217;52.694;6.214;2022-11-15T01:00:54;7.20;99.90
57390;DHT22;43217;52.694;6.214;2022-11-15T01:03:20;7.30;99.90
57390;DHT22;43217;52.694;6.214;2022-11-15T01:05:45;7.30;99.90
57390;DHT22;43217;52.694;6.214;2022-11-15T01:08:15;7.30;99.90
57390;DHT22;43217;52.694;6.214;2022-11-15T01:10:41;7.30;99.90
57390;DHT22;43217;52.694;6.214;2022-11-15T01:13:07;7.30;99.90
57390;DHT22;43217;52.694;6.214;2022-11-15T01:15:38;7.30;99.90
57390;DHT22;43217;52.694;6.214;2022-11-15T01:18:04;7.30;99.90
57390;DHT22;43217;52.694;6.214;2022-11-15T01:20:29;7.30;99.90
57390;DHT22;43217;52.694;6.214;2022-11-15T01:22:55;7.40;99.90
57390;DHT22;43217;52.694;6.214;2022-11-15T01:25:20;7.40;99.90
57390;DHT22;43217;52.694;6.214;2022-11-15T01:27:46;7.40;99.90
57390;DHT22;43217;52.694;6.214;2022-11-15T01:30:12;7.40;99.90
57390;DHT22;43217;52.694;6.214;2022-11-15T01:32:37;7.40;99.90
57390;DHT22;43217;52.694;6.214;2022-11-15T01:35:03;7.40;99.90
57390;DHT22;43217;52.694;6.214;2022-11-15T01:37:29;7.50;99.90
57390;DHT22;43217;52.694;6.214;2022-11-15T01:39:54;7.50;99.90
57390;DHT22;43217;52.694;6.214;2022-11-15T01:42:20;7.50;99.90
57390;DHT22;43217;52.694;6.214;2022-11-15T01:44:49;7.50;99.90
57390;DHT22;43217;52.694;6.214;2022-11-15T01:47:28;7.50;99.90
57390;DHT22;43217;52.694;6.214;2022-11-15T01:52:27;7.50;99.90
57390;DHT22;43217;52.694;6.214;2022-11-15T01:55:20;7.50;99.90
57390;DHT22;43217;52.694;6.214;2022-11-15T01:57:50;7.60;99.90
57390;DHT22;43217;52.694;6.214;2022-11-15T02:00:18;7.60;99.90
57390;DHT22;43217;52.694;6.214;2022-11-15T02:02:44;7.60;99.90
57390;DHT22;43217;52.694;6.214;2022-11-15T02:05:10;7.60;99.90
57390;DHT22;43217;52.694;6.214;2022-11-15T02:07:36;7.60;99.90
57390;DHT22;43217;52.694;6.214;2022-11-15T02:10:08;7.70;99.90
57390;DHT22;43217;52.694;6.214;2022-11-15T02:12:34;7.60;99.90
57390;DHT22;43217;52.694;6.214;2022-11-15T02:15:01;7.70;99.90
57390;DHT22;43217;52.694;6.214;2022-11-15T02:31:13;7.80;99.90
57390;DHT22;43217;52.694;6.214;2022-11-15T02:33:53;7.70;99.90
57390;DHT22;43217;52.694;6.214;2022-11-15T02:42:00;7.90;99.90
57390;DHT22;43217;52.694;6.214;2022-11-15T02:44:34;7.90;99.90
57390;DHT22;43217;52.694;6.214;2022-11-15T02:47:04;7.90;99.90
57390;DHT22;43217;52.694;6.214;2022-11-15T02:49:49;7.90;99.90
57390;DHT22;43217;52.694;6.214;2022-11-15T02:52:21;8.00;99.90
57390;DHT22;43217;52.694;6.214;2022-11-15T02:54:54;8.00;99.90
57390;DHT22;43217;52.694;6.214;2022-11-15T02:57:41;8.00;99.90
57390;DHT22;43217;52.694;6.214;2022-11-15T03:00:12;8.00;99.90
57390;DHT22;43217;52.694;6.214;2022-11-15T03:05:15;8.10;99.90
57390;DHT22;43217;52.694;6.214;2022-11-15T03:15:38;8.10;99.90
57390;DHT22;43217;52.694;6.214;2022-11-15T03:18:10;8.10;99.90
57390;DHT22;43217;52.694;6.214;2022-11-15T03:20:42;8.20;99.90
57390;DHT22;43217;52.694;6.214;2022-11-15T03:23:10;8.20;99.90
57390;DHT22;43217;52.694;6.214;2022-11-15T03:25:40;8.20;99.90
57390;DHT22;43217;52.694;6.214;2022-11-15T03:28:09;8.30;99.90
57390;DHT22;43217;52.694;6.214;2022-11-15T03:30:37;8.30;99.90
57390;DHT22;43217;52.694;6.214;2022-11-15T03:33:04;8.30;99.90
57390;DHT22;43217;52.694;6.214;2022-11-15T03:35:35;8.40;99.90
57390;DHT22;43217;52.694;6.214;2022-11-15T03:38:17;8.40;99.90
57390;DHT22;43217;52.694;6.214;2022-11-15T03:40:56;8.40;99.90
57390;DHT22;43217;52.694;6.214;2022-11-15T03:49:17;8.50;99.90
57390;DHT22;43217;52.694;6.214;2022-11-15T03:51:45;8.50;99.90
57390;DHT22;43217;52.694;6.214;2022-11-15T03:54:12;8.40;99.90
57390;DHT22;43217;52.694;6.214;2022-11-15T03:56:37;8.50;99.90
57390;DHT22;43217;52.694;6.214;2022-11-15T03:59:03;8.50;99.90
57390;DHT22;43217;52.694;6.214;2022-11-15T04:01:28;8.50;99.90
57390;DHT22;43217;52.694;6.214;2022-11-15T04:03:54;8.60;99.90
57390;DHT22;43217;52.694;6.214;2022-11-15T04:06:20;8.60;99.90
57390;DHT22;43217;52.694;6.214;2022-11-15T04:08:45;8.60;99.90
57390;DHT22;43217;52.694;6.214;2022-11-15T04:11:11;8.60;99.90
57390;DHT22;43217;52.694;6.214;2022-11-15T04:13:36;8.60;99.90
57390;DHT22;43217;52.694;6.214;2022-11-15T04:16:02;8.60;99.90
57390;DHT22;43217;52.694;6.214;2022-11-15T04:18:27;8.60;99.90
57390;DHT22;43217;52.694;6.214;2022-11-15T04:20:53;8.70;99.90
57390;DHT22;43217;52.694;6.214;2022-11-15T04:23:37;8.70;99.90
57390;DHT22;43217;52.694;6.214;2022-11-15T04:26:22;8.70;99.90
57390;DHT22;43217;52.694;6.214;2022-11-15T04:28:48;8.70;99.90
57390;DHT22;43217;52.694;6.214;2022-11-15T04:31:32;8.80;99.90
57390;DHT22;43217;52.694;6.214;2022-11-15T04:33:58;8.80;99.90
57390;DHT22;43217;52.694;6.214;2022-11-15T04:36:24;8.80;99.90
57390;DHT22;43217;52.694;6.214;2022-11-15T04:39:09;8.80;99.90
57390;DHT22;43217;52.694;6.214;2022-11-15T04:41:35;8.80;99.90
57390;DHT22;43217;52.694;6.214;2022-11-15T04:44:00;8.90;99.90
57390;DHT22;43217;52.694;6.214;2022-11-15T04:46:26;8.90;99.90
57390;DHT22;43217;52.694;6.214;2022-11-15T04:48:52;8.90;99.90
57390;DHT22;43217;52.694;6.214;2022-11-15T04:51:18;9.00;99.90
57390;DHT22;43217;52.694;6.214;2022-11-15T04:53:43;9.00;99.90
57390;DHT22;43217;52.694;6.214;2022-11-15T04:56:09;9.00;99.90
57390;DHT22;43217;52.694;6.214;2022-11-15T04:58:35;9.10;99.90
57390;DHT22;43217;52.694;6.214;2022-11-15T05:01:12;9.10;99.90
57390;DHT22;43217;52.694;6.214;2022-11-15T05:03:43;9.10;99.90
57390;DHT22;43217;52.694;6.214;2022-11-15T05:06:27;9.20;99.90
57390;DHT22;43217;52.694;6.214;2022-11-15T05:08:53;9.20;99.90
57390;DHT22;43217;52.694;6.214;2022-11-15T05:11:19;9.20;99.90
57390;DHT22;43217;52.694;6.214;2022-11-15T05:13:46;9.20;99.90
57390;DHT22;43217;52.694;6.214;2022-11-15T05:16:12;9.20;99.90
57390;DHT22;43217;52.694;6.214;2022-11-15T05:18:39;9.30;99.90
57390;DHT22;43217;52.694;6.214;2022-11-15T05:21:12;9.30;99.90
57390;DHT22;43217;52.694;6.214;2022-11-15T05:23:39;9.30;99.90
57390;DHT22;43217;52.694;6.214;2022-11-15T05:26:06;9.30;99.90
57390;DHT22;43217;52.694;6.214;2022-11-15T05:28:33;9.40;99.90
57390;DHT22;43217;52.694;6.214;2022-11-15T05:31:02;9.40;99.90
57390;DHT22;43217;52.694;6.214;2022-11-15T05:33:28;9.40;99.90
57390;DHT22;43217;52.694;6.214;2022-11-15T05:35:59;9.40;99.90
57390;DHT22;43217;52.694;6.214;2022-11-15T05:38:26;9.50;99.90
57390;DHT22;43217;52.694;6.214;2022-11-15T05:40:52;9.50;99.90
57390;DHT22;43217;52.694;6.214;2022-11-15T05:43:17;9.50;99.90
57390;DHT22;43217;52.694;6.214;2022-11-15T05:45:43;9.50;99.90
57390;DHT22;43217;52.694;6.214;2022-11-15T05:48:10;9.50;99.90
57390;DHT22;43217;52.694;6.214;2022-11-15T05:50:38;9.60;99.90
57390;DHT22;43217;52.694;6.214;2022-11-15T05:53:06;9.60;99.90
57390;DHT22;43217;52.694;6.214;2022-11-15T05:55:33;9.60;99.90
57390;DHT22;43217;52.694;6.214;2022-11-15T05:58:00;9.70;99.90
57390;DHT22;43217;52.694;6.214;2022-11-15T06:00:26;9.70;99.90
57390;DHT22;43217;52.694;6.214;2022-11-15T06:02:51;9.70;99.90
57390;DHT22;43217;52.694;6.214;2022-11-15T06:05:17;9.70;99.90
57390;DHT22;43217;52.694;6.214;2022-11-15T06:07:42;9.80;99.90
57390;DHT22;43217;52.694;6.214;2022-11-15T06:10:09;9.80;99.90
57390;DHT22;43217;52.694;6.214;2022-11-15T06:12:35;9.90;99.90
57390;DHT22;43217;52.694;6.214;2022-11-15T06:15:00;9.90;99.90
57390;DHT22;43217;52.694;6.214;2022-11-15T06:17:26;9.90;99.90
57390;DHT22;43217;52.694;6.214;2022-11-15T06:19:51;9.90;99.90
57390;DHT22;43217;52.694;6.214;2022-11-15T06:22:17;9.90;99.90
57390;DHT22;43217;52.694;6.214;2022-11-15T06:24:42;10.00;99.90
57390;DHT22;43217;52.694;6.214;2022-11-15T06:27:10;10.00;99.90
57390;DHT22;43217;52.694;6.214;2022-11-15T06:29:36;10.00;99.90
57390;DHT22;43217;52.694;6.214;2022-11-15T06:32:02;10.00;99.90
57390;DHT22;43217;52.694;6.214;2022-11-15T06:34:27;10.00;99.90
57390;DHT22;43217;52.694;6.214;2022-11-15T06:36:53;10.10;99.90
57390;DHT22;43217;52.694;6.214;2022-11-15T06:39:18;10.10;99.90
57390;DHT22;43217;52.694;6.214;2022-11-15T06:41:44;10.10;99.90
57390;DHT22;43217;52.694;6.214;2022-11-15T06:44:10;10.10;99.90
57390;DHT22;43217;52.694;6.214;2022-11-15T06:46:35;10.10;99.90
57390;DHT22;43217;52.694;6.214;2022-11-15T06:49:01;10.10;99.90
57390;DHT22;43217;52.694;6.214;2022-11-15T06:51:26;10.10;99.90
57390;DHT22;43217;52.694;6.214;2022-11-15T06:53:52;10.10;99.90
57390;DHT22;43217;52.694;6.214;2022-11-15T06:56:17;10.10;99.90
57390;DHT22;43217;52.694;6.214;2022-11-15T06:58:43;10.20;99.90
57390;DHT22;43217;52.694;6.214;2022-11-15T07:01:10;10.20;99.90
57390;DHT22;43217;52.694;6.214;2022-11-15T07:03:38;10.10;99.90
57390;DHT22;43217;52.694;6.214;2022-11-15T07:06:04;10.20;99.90
57390;DHT22;43217;52.694;6.214;2022-11-15T07:08:29;10.20;99.90
57390;DHT22;43217;52.694;6.214;2022-11-15T07:10:58;10.20;99.90
57390;DHT22;43217;52.694;6.214;2022-11-15T07:13:26;10.30;99.90
57390;DHT22;43217;52.694;6.214;2022-11-15T07:15:54;10.30;99.90
57390;DHT22;43217;52.694;6.214;2022-11-15T07:18:20;10.30;99.90
57390;DHT22;43217;52.694;6.214;2022-11-15T07:20:46;10.30;99.90
57390;DHT22;43217;52.694;6.214;2022-11-15T07:23:12;10.30;99.90
57390;DHT22;43217;52.694;6.214;2022-11-15T07:25:37;10.40;99.90
57390;DHT22;43217;52.694;6.214;2022-11-15T07:28:03;10.40;99.90
57390;DHT22;43217;52.694;6.214;2022-11-15T07:30:34;10.40;99.90
57390;DHT22;43217;52.694;6.214;2022-11-15T07:33:00;10.40;99.90
57390;DHT22;43217;52.694;6.214;2022-11-15T07:35:27;10.40;99.90
57390;DHT22;43217;52.694;6.214;2022-11-15T07:37:57;10.40;99.90
57390;DHT22;43217;52.694;6.214;2022-11-15T07:40:24;10.40;99.90
57390;DHT22;43217;52.694;6.214;2022-11-15T07:42:49;10.40;99.90
57390;DHT22;43217;52.694;6.214;2022-11-15T07:45:18;10.40;99.90
57390;DHT22;43217;52.694;6.214;2022-11-15T07:47:46;10.40;99.90
57390;DHT22;43217;52.694;6.214;2022-11-15T07:50:11;10.40;99.90
57390;DHT22;43217;52.694;6.214;2022-11-15T07:52:37;10.50;99.90
57390;DHT22;43217;52.694;6.214;2022-11-15T07:55:03;10.50;99.90
57390;DHT22;43217;52.694;6.214;2022-11-15T07:57:29;10.50;99.90
57390;DHT22;43217;52.694;6.214;2022-11-15T07:59:55;10.50;99.90
57390;DHT22;43217;52.694;6.214;2022-11-15T08:02:21;10.50;99.90
57390;DHT22;43217;52.694;6.214;2022-11-15T08:04:46;10.50;99.90
57390;DHT22;43217;52.694;6.214;2022-11-15T08:07:12;10.50;99.90
57390;DHT22;43217;52.694;6.214;2022-11-15T08:09:38;10.60;99.90
57390;DHT22;43217;52.694;6.214;2022-11-15T08:12:04;10.60;99.90
57390;DHT22;43217;52.694;6.214;2022-11-15T08:14:30;10.60;99.90
57390;DHT22;43217;52.694;6.214;2022-11-15T08:16:56;10.70;99.90
57390;DHT22;43217;52.694;6.214;2022-11-15T08:19:22;10.70;99.90
57390;DHT22;43217;52.694;6.214;2022-11-15T08:21:48;10.70;99.90
57390;DHT22;43217;52.694;6.214;2022-11-15T08:24:13;10.80;99.90
57390;DHT22;43217;52.694;6.214;2022-11-15T08:26:39;10.80;99.90
57390;DHT22;43217;52.694;6.214;2022-11-15T08:29:05;10.80;99.90
57390;DHT22;43217;52.694;6.214;2022-11-15T08:31:34;10.80;99.90
57390;DHT22;43217;52.694;6.214;2022-11-15T08:34:02;10.80;99.90
57390;DHT22;43217;52.694;6.214;2022-11-15T08:36:28;10.80;99.90
57390;DHT22;43217;52.694;6.214;2022-11-15T08:38:53;10.80;99.90
57390;DHT22;43217;52.694;6.214;2022-11-15T08:41:31;10.90;99.90
57390;DHT22;43217;52.694;6.214;2022-11-15T08:43:57;10.90;99.90
57390;DHT22;43217;52.694;6.214;2022-11-15T08:46:22;10.90;99.90
57390;DHT22;43217;52.694;6.214;2022-11-15T08:48:48;10.90;99.90
57390;DHT22;43217;52.694;6.214;2022-11-15T08:51:14;10.90;99.90
57390;DHT22;43217;52.694;6.214;2022-11-15T08:53:39;10.90;99.90
57390;DHT22;43217;52.694;6.214;2022-11-15T08:56:08;10.90;99.90
57390;DHT22;43217;52.694;6.214;2022-11-15T08:58:34;11.00;99.90
57390;DHT22;43217;52.694;6.214;2022-11-15T09:01:00;11.00;99.90
57390;DHT22;43217;52.694;6.214;2022-11-15T09:03:26;11.00;99.90
57390;DHT22;43217;52.694;6.214;2022-11-15T09:05:55;11.00;99.90
57390;DHT22;43217;52.694;6.214;2022-11-15T09:08:21;11.10;99.90
57390;DHT22;43217;52.694;6.214;2022-11-15T09:10:47;11.00;99.90
57390;DHT22;43217;52.694;6.214;2022-11-15T09:13:12;11.10;99.90
57390;DHT22;43217;52.694;6.214;2022-11-15T09:15:39;11.10;99.90
57390;DHT22;43217;52.694;6.214;2022-11-15T09:18:04;11.10;99.90
57390;DHT22;43217;52.694;6.214;2022-11-15T09:20:30;11.10;99.90
57390;DHT22;43217;52.694;6.214;2022-11-15T09:23:00;11.10;99.90
57390;DHT22;43217;52.694;6.214;2022-11-15T09:25:26;11.10;99.90
57390;DHT22;43217;52.694;6.214;2022-11-15T09:27:52;11.10;99.90
57390;DHT22;43217;52.694;6.214;2022-11-15T09:30:18;11.10;99.90
57390;DHT22;43217;52.694;6.214;2022-11-15T09:32:43;11.20;99.90
57390;DHT22;43217;52.694;6.214;2022-11-15T09:35:09;11.20;99.90
57390;DHT22;43217;52.694;6.214;2022-11-15T09:37:35;11.20;99.90
57390;DHT22;43217;52.694;6.214;2022-11-15T09:40:00;11.20;99.90
57390;DHT22;43217;52.694;6.214;2022-11-15T09:50:49;11.30;99.90
57390;DHT22;43217;52.694;6.214;2022-11-15T09:53:41;11.30;99.90
57390;DHT22;43217;52.694;6.214;2022-11-15T09:56:18;11.30;99.90
57390;DHT22;43217;52.694;6.214;2022-11-15T10:04:10;11.40;99.90
57390;DHT22;43217;52.694;6.214;2022-11-15T10:06:42;11.30;99.90
57390;DHT22;43217;52.694;6.214;2022-11-15T10:09:15;11.40;99.90
57390;DHT22;43217;52.694;6.214;2022-11-15T10:11:42;11.40;99.90
57390;DHT22;43217;52.694;6.214;2022-11-15T10:14:12;11.40;99.90
57390;DHT22;43217;52.694;6.214;2022-11-15T10:25:24;11.60;99.90
57390;DHT22;43217;52.694;6.214;2022-11-15T10:28:00;11.60;99.90
57390;DHT22;43217;52.694;6.214;2022-11-15T10:30:50;11.70;99.90
57390;DHT22;43217;52.694;6.214;2022-11-15T10:36:16;11.70;99.90
57390;DHT22;43217;52.694;6.214;2022-11-15T10:46:34;11.70;99.90
57390;DHT22;43217;52.694;6.214;2022-11-15T10:52:12;11.70;99.90
57390;DHT22;43217;52.694;6.214;2022-11-15T10:54:48;11.70;99.90
57390;DHT22;43217;52.694;6.214;2022-11-15T10:57:30;11.80;99.90
57390;DHT22;43217;52.694;6.214;2022-11-15T11:00:07;11.80;99.90
57390;DHT22;43217;52.694;6.214;2022-11-15T11:08:23;11.90;99.90
57390;DHT22;43217;52.694;6.214;2022-11-15T11:10:59;12.00;99.90
57390;DHT22;43217;52.694;6.214;2022-11-15T11:27:05;12.20;99.90
57390;DHT22;43217;52.694;6.214;2022-11-15T11:30:08;12.20;99.90
57390;DHT22;43217;52.694;6.214;2022-11-15T11:38:24;12.20;99.90
57390;DHT22;43217;52.694;6.214;2022-11-15T11:46:56;12.30;99.90
57390;DHT22;43217;52.694;6.214;2022-11-15T11:52:03;12.40;99.90
57390;DHT22;43217;52.694;6.214;2022-11-15T11:55:10;12.40;99.90
57390;DHT22;43217;52.694;6.214;2022-11-15T11:57:49;12.40;99.90
57390;DHT22;43217;52.694;6.214;2022-11-15T12:00:24;12.50;99.90
57390;DHT22;43217;52.694;6.214;2022-11-15T12:03:02;12.50;99.90
57390;DHT22;43217;52.694;6.214;2022-11-15T12:05:41;12.50;99.90
57390;DHT22;43217;52.694;6.214;2022-11-15T12:08:31;12.60;99.90
57390;DHT22;43217;52.694;6.214;2022-11-15T12:11:17;12.60;99.90
57390;DHT22;43217;52.694;6.214;2022-11-15T12:13:45;12.60;99.90
57390;DHT22;43217;52.694;6.214;2022-11-15T12:16:23;12.70;99.90
57390;DHT22;43217;52.694;6.214;2022-11-15T12:18:51;12.70;99.90
57390;DHT22;43217;52.694;6.214;2022-11-15T12:21:39;12.60;99.90
57390;DHT22;43217;52.694;6.214;2022-11-15T12:24:20;12.50;99.90
57390;DHT22;43217;52.694;6.214;2022-11-15T12:27:32;12.50;99.90
57390;DHT22;43217;52.694;6.214;2022-11-15T12:30:00;12.50;99.90
57390;DHT22;43217;52.694;6.214;2022-11-15T12:32:38;12.50;99.90
57390;DHT22;43217;52.694;6.214;2022-11-15T12:35:42;12.50;99.90
57390;DHT22;43217;52.694;6.214;2022-11-15T12:38:13;12.50;99.90
57390;DHT22;43217;52.694;6.214;2022-11-15T12:41:18;12.50;99.90
57390;DHT22;43217;52.694;6.214;2022-11-15T12:43:46;12.50;99.90
57390;DHT22;43217;52.694;6.214;2022-11-15T12:48:47;12.50;99.90
57390;DHT22;43217;52.694;6.214;2022-11-15T12:51:13;12.40;99.90
57390;DHT22;43217;52.694;6.214;2022-11-15T12:53:39;12.40;99.90
57390;DHT22;43217;52.694;6.214;2022-11-15T12:56:17;12.40;99.90
57390;DHT22;43217;52.694;6.214;2022-11-15T12:58:58;12.30;99.90
57390;DHT22;43217;52.694;6.214;2022-11-15T13:06:54;12.20;99.90
57390;DHT22;43217;52.694;6.214;2022-11-15T13:17:49;12.30;99.90
57390;DHT22;43217;52.694;6.214;2022-11-15T13:22:52;12.20;99.90
57390;DHT22;43217;52.694;6.214;2022-11-15T13:27:49;12.20;99.90
57390;DHT22;43217;52.694;6.214;2022-11-15T13:30:30;12.30;99.90
57390;DHT22;43217;52.694;6.214;2022-11-15T13:33:00;12.20;99.90
57390;DHT22;43217;52.694;6.214;2022-11-15T13:35:28;12.30;99.90
57390;DHT22;43217;52.694;6.214;2022-11-15T13:37:55;12.30;99.90
57390;DHT22;43217;52.694;6.214;2022-11-15T13:40:33;12.30;99.90
57390;DHT22;43217;52.694;6.214;2022-11-15T13:43:00;12.20;99.90
57390;DHT22;43217;52.694;6.214;2022-11-15T13:45:39;12.20;99.90
57390;DHT22;43217;52.694;6.214;2022-11-15T13:48:05;12.20;99.90
57390;DHT22;43217;52.694;6.214;2022-11-15T13:50:36;12.20;99.90
57390;DHT22;43217;52.694;6.214;2022-11-15T13:53:04;12.20;99.90
57390;DHT22;43217;52.694;6.214;2022-11-15T13:55:32;12.10;99.90
57390;DHT22;43217;52.694;6.214;2022-11-15T13:58:02;12.10;99.90
57390;DHT22;43217;52.694;6.214;2022-11-15T14:00:43;12.10;99.90
57390;DHT22;43217;52.694;6.214;2022-11-15T14:03:15;12.10;99.90
57390;DHT22;43217;52.694;6.214;2022-11-15T14:05:41;12.00;99.90
57390;DHT22;43217;52.694;6.214;2022-11-15T14:10:45;11.90;99.90
57390;DHT22;43217;52.694;6.214;2022-11-15T14:13:28;11.90;99.90
57390;DHT22;43217;52.694;6.214;2022-11-15T14:15:54;11.90;99.90
57390;DHT22;43217;52.694;6.214;2022-11-15T14:18:42;11.90;99.90
57390;DHT22;43217;52.694;6.214;2022-11-15T14:21:08;12.00;99.90
57390;DHT22;43217;52.694;6.214;2022-11-15T14:23:34;11.90;99.90
57390;DHT22;43217;52.694;6.214;2022-11-15T14:26:00;11.90;99.90
57390;DHT22;43217;52.694;6.214;2022-11-15T14:30:53;11.90;99.90
57390;DHT22;43217;52.694;6.214;2022-11-15T14:33:51;11.90;99.90
57390;DHT22;43217;52.694;6.214;2022-11-15T14:36:19;11.90;99.90
57390;DHT22;43217;52.694;6.214;2022-11-15T14:38:45;11.80;99.90
57390;DHT22;43217;52.694;6.214;2022-11-15T14:41:34;11.80;99.90
57390;DHT22;43217;52.694;6.214;2022-11-15T14:44:03;11.80;99.90
57390;DHT22;43217;52.694;6.214;2022-11-15T14:46:29;11.70;99.90
57390;DHT22;43217;52.694;6.214;2022-11-15T14:48:54;11.70;99.90
57390;DHT22;43217;52.694;6.214;2022-11-15T14:51:20;11.70;99.90
57390;DHT22;43217;52.694;6.214;2022-11-15T14:53:46;11.70;99.90
57390;DHT22;43217;52.694;6.214;2022-11-15T14:56:13;11.70;99.90
57390;DHT22;43217;52.694;6.214;2022-11-15T14:58:39;11.70;99.90
57390;DHT22;43217;52.694;6.214;2022-11-15T15:01:20;11.70;99.90
57390;DHT22;43217;52.694;6.214;2022-11-15T15:03:46;11.70;99.90
57390;DHT22;43217;52.694;6.214;2022-11-15T15:06:13;11.60;99.90
57390;DHT22;43217;52.694;6.214;2022-11-15T15:08:39;11.60;99.90
57390;DHT22;43217;52.694;6.214;2022-11-15T15:11:21;11.60;99.90
57390;DHT22;43217;52.694;6.214;2022-11-15T15:13:47;11.50;99.90
57390;DHT22;43217;52.694;6.214;2022-11-15T15:16:13;11.60;99.90
57390;DHT22;43217;52.694;6.214;2022-11-15T15:18:40;11.50;99.90
57390;DHT22;43217;52.694;6.214;2022-11-15T15:21:27;11.50;99.90
57390;DHT22;43217;52.694;6.214;2022-11-15T15:23:54;11.50;99.90
57390;DHT22;43217;52.694;6.214;2022-11-15T15:26:20;11.40;99.90
57390;DHT22;43217;52.694;6.214;2022-11-15T15:28:46;11.50;99.90
57390;DHT22;43217;52.694;6.214;2022-11-15T15:31:13;11.40;99.90
57390;DHT22;43217;52.694;6.214;2022-11-15T15:33:39;11.30;99.90
57390;DHT22;43217;52.694;6.214;2022-11-15T15:36:08;11.30;99.90
57390;DHT22;43217;52.694;6.214;2022-11-15T15:38:34;11.30;99.90
57390;DHT22;43217;52.694;6.214;2022-11-15T15:40:59;11.20;99.90
57390;DHT22;43217;52.694;6.214;2022-11-15T15:43:27;11.20;99.90
57390;DHT22;43217;52.694;6.214;2022-11-15T15:45:53;11.20;99.90
57390;DHT22;43217;52.694;6.214;2022-11-15T15:48:18;11.20;99.90
57390;DHT22;43217;52.694;6.214;2022-11-15T15:50:44;11.20;99.90
57390;DHT22;43217;52.694;6.214;2022-11-15T15:53:11;11.20;99.90
57390;DHT22;43217;52.694;6.214;2022-11-15T15:55:38;11.10;99.90
57390;DHT22;43217;52.694;6.214;2022-11-15T15:58:04;11.20;99.90
57390;DHT22;43217;52.694;6.214;2022-11-15T16:00:30;11.20;99.90
57390;DHT22;43217;52.694;6.214;2022-11-15T16:02:58;11.20;99.90
57390;DHT22;43217;52.694;6.214;2022-11-15T16:05:24;11.30;99.90
57390;DHT22;43217;52.694;6.214;2022-11-15T16:07:50;11.30;99.90
57390;DHT22;43217;52.694;6.214;2022-11-15T16:10:27;11.30;99.90
57390;DHT22;43217;52.694;6.214;2022-11-15T16:12:54;11.30;99.90
57390;DHT22;43217;52.694;6.214;2022-11-15T16:15:22;11.40;99.90
57390;DHT22;43217;52.694;6.214;2022-11-15T16:17:50;11.40;99.90
57390;DHT22;43217;52.694;6.214;2022-11-15T16:20:37;11.40;99.90
57390;DHT22;43217;52.694;6.214;2022-11-15T16:23:07;11.40;99.90
57390;DHT22;43217;52.694;6.214;2022-11-15T16:25:41;11.50;99.90
57390;DHT22;43217;52.694;6.214;2022-11-15T16:28:18;11.50;99.90
57390;DHT22;43217;52.694;6.214;2022-11-15T16:30:44;11.50;99.90
57390;DHT22;43217;52.694;6.214;2022-11-15T16:33:10;11.50;99.90
57390;DHT22;43217;52.694;6.214;2022-11-15T16:35:35;11.50;99.90
57390;DHT22;43217;52.694;6.214;2022-11-15T16:38:01;11.50;99.90
57390;DHT22;43217;52.694;6.214;2022-11-15T16:40:33;11.50;99.90
57390;DHT22;43217;52.694;6.214;2022-11-15T16:43:00;11.50;99.90
57390;DHT22;43217;52.694;6.214;2022-11-15T16:45:28;11.50;99.90
57390;DHT22;43217;52.694;6.214;2022-11-15T16:47:54;11.50;99.90
57390;DHT22;43217;52.694;6.214;2022-11-15T16:50:26;11.50;99.90
57390;DHT22;43217;52.694;6.214;2022-11-15T16:52:54;11.50;99.90
57390;DHT22;43217;52.694;6.214;2022-11-15T16:55:20;11.50;99.90
57390;DHT22;43217;52.694;6.214;2022-11-15T16:57:47;11.50;99.90
57390;DHT22;43217;52.694;6.214;2022-11-15T17:00:13;11.50;99.90
57390;DHT22;43217;52.694;6.214;2022-11-15T17:02:43;11.50;99.90
57390;DHT22;43217;52.694;6.214;2022-11-15T17:05:09;11.50;99.90
57390;DHT22;43217;52.694;6.214;2022-11-15T17:07:35;11.50;99.90
57390;DHT22;43217;52.694;6.214;2022-11-15T17:10:01;11.50;99.90
57390;DHT22;43217;52.694;6.214;2022-11-15T17:12:27;11.50;99.90
57390;DHT22;43217;52.694;6.214;2022-11-15T17:14:55;11.50;99.90
57390;DHT22;43217;52.694;6.214;2022-11-15T17:17:21;11.50;99.90
57390;DHT22;43217;52.694;6.214;2022-11-15T17:19:47;11.50;99.90
57390;DHT22;43217;52.694;6.214;2022-11-15T17:22:13;11.50;99.90
57390;DHT22;43217;52.694;6.214;2022-11-15T17:24:38;11.60;99.90
57390;DHT22;43217;52.694;6.214;2022-11-15T17:27:04;11.50;99.90
57390;DHT22;43217;52.694;6.214;2022-11-15T17:29:30;11.60;99.90
57390;DHT22;43217;52.694;6.214;2022-11-15T17:31:55;11.60;99.90
57390;DHT22;43217;52.694;6.214;2022-11-15T17:34:25;11.60;99.90
57390;DHT22;43217;52.694;6.214;2022-11-15T17:36:53;11.60;99.90
57390;DHT22;43217;52.694;6.214;2022-11-15T17:39:19;11.60;99.90
57390;DHT22;43217;52.694;6.214;2022-11-15T17:41:50;11.60;99.90
57390;DHT22;43217;52.694;6.214;2022-11-15T17:44:16;11.60;99.90
57390;DHT22;43217;52.694;6.214;2022-11-15T17:46:42;11.70;99.90
57390;DHT22;43217;52.694;6.214;2022-11-15T17:49:08;11.60;99.90
57390;DHT22;43217;52.694;6.214;2022-11-15T17:51:34;11.70;99.90
57390;DHT22;43217;52.694;6.214;2022-11-15T17:54:00;11.70;99.90
57390;DHT22;43217;52.694;6.214;2022-11-15T17:56:27;11.70;99.90
57390;DHT22;43217;52.694;6.214;2022-11-15T17:58:56;11.70;99.90
57390;DHT22;43217;52.694;6.214;2022-11-15T18:01:23;11.70;99.90
57390;DHT22;43217;52.694;6.214;2022-11-15T18:03:50;11.70;99.90